createdAt,value
2022-11-05T00:01:54.027Z,97.80
2022-11-05T00:04:41.837Z,97.20
2022-11-05T00:07:32.043Z,97.50
2022-11-05T00:10:06.643Z,98.20
2022-11-05T00:12:53.140Z,98.00
2022-11-05T00:15:39.406Z,97.90
2022-11-05T00:18:08.246Z,97.60
2022-11-05T00:20:38.455Z,97.90
2022-11-05T00:23:25.434Z,97.70
2022-11-05T00:25:59.191Z,98.30
2022-11-05T00:28:29.266Z,98.60
2022-11-05T00:31:03.250Z,98.60
2022-11-05T00:33:32.754Z,99.80
2022-11-05T00:36:04.064Z,99.90
2022-11-05T00:38:33.428Z,99.90
2022-11-05T00:41:02.538Z,99.90
2022-11-05T00:43:48.530Z,99.90
2022-11-05T00:46:17.410Z,99.90
2022-11-05T00:49:03.990Z,99.90
2022-11-05T00:51:34.450Z,99.90
2022-11-05T00:54:03.403Z,99.90
2022-11-05T00:56:32.341Z,99.90
2022-11-05T00:59:01.089Z,99.90
2022-11-05T01:01:29.984Z,99.90
2022-11-05T01:03:58.870Z,99.90
2022-11-05T01:06:27.741Z,99.90
2022-11-05T01:08:58.095Z,99.90
2022-11-05T01:11:37.414Z,99.90
2022-11-05T01:14:08.322Z,99.30
2022-11-05T01:19:08.095Z,99.80
2022-11-05T01:21:37.021Z,98.30
2022-11-05T01:24:08.229Z,99.50
2022-11-05T01:26:37.146Z,98.00
2022-11-05T01:29:06.029Z,97.40
2022-11-05T01:31:35.030Z,96.50
2022-11-05T01:34:03.884Z,95.50
2022-11-05T01:36:33.251Z,95.30
2022-11-05T01:39:02.744Z,95.30
2022-11-05T01:41:33.243Z,95.00
2022-11-05T01:44:02.107Z,94.50
2022-11-05T01:46:35.799Z,94.50
2022-11-05T01:49:12.007Z,95.10
2022-11-05T01:51:41.719Z,94.50
2022-11-05T01:54:13.988Z,95.00
2022-11-05T01:59:17.721Z,95.90
2022-11-05T02:01:46.820Z,95.50
2022-11-05T02:04:19.544Z,96.10
2022-11-05T02:06:48.688Z,96.20
2022-11-05T02:09:22.257Z,96.20
2022-11-05T02:11:53.396Z,96.40
2022-11-05T02:14:22.438Z,96.60
2022-11-05T02:16:57.876Z,96.30
2022-11-05T02:20:00.746Z,95.70
2022-11-05T02:22:54.191Z,95.10
2022-11-05T02:25:58.451Z,94.80
2022-11-05T02:28:54.789Z,94.80
2022-11-05T02:31:30.737Z,93.80
2022-11-05T02:34:06.289Z,93.30
2022-11-05T02:36:45.423Z,93.00
2022-11-05T02:39:29.357Z,93.20
2022-11-05T02:42:08.939Z,93.20
2022-11-05T02:44:45.979Z,92.80
2022-11-05T02:47:25.351Z,92.70
2022-11-05T02:49:59.410Z,92.60
2022-11-05T02:52:37.402Z,92.70
2022-11-05T02:55:15.043Z,92.80
2022-11-05T02:57:46.573Z,92.70
2022-11-05T03:00:52.053Z,92.40
2022-11-05T03:03:27.921Z,92.30
2022-11-05T03:06:23.696Z,92.50
2022-11-05T03:09:25.783Z,92.30
2022-11-05T03:12:04.516Z,92.90
2022-11-05T03:14:41.886Z,93.10
2022-11-05T03:17:17.284Z,92.90
2022-11-05T03:19:51.276Z,93.20
2022-11-05T03:22:25.810Z,93.00
2022-11-05T03:24:59.462Z,93.00
2022-11-05T03:27:31.956Z,93.10
2022-11-05T03:30:04.894Z,93.00
2022-11-05T03:32:36.407Z,92.70
2022-11-05T03:35:12.260Z,92.20
2022-11-05T03:37:44.571Z,92.00
2022-11-05T03:40:16.491Z,91.90
2022-11-05T03:42:50.837Z,91.30
2022-11-05T03:45:23.086Z,91.20
2022-11-05T03:47:54.456Z,91.20
2022-11-05T03:50:34.742Z,90.30
2022-11-05T03:53:14.438Z,90.00
2022-11-05T03:55:49.647Z,90.20
2022-11-05T03:58:20.616Z,90.50
2022-11-05T04:00:50.172Z,90.30
2022-11-05T04:03:18.982Z,90.70
2022-11-05T04:06:09.705Z,91.50
2022-11-05T04:08:56.129Z,91.20
2022-11-05T04:11:42.557Z,91.40
2022-11-05T04:14:11.417Z,91.50
2022-11-05T04:16:57.356Z,92.00
2022-11-05T04:19:39.978Z,90.80
2022-11-05T04:22:27.804Z,90.60
2022-11-05T04:24:56.655Z,87.40
2022-11-05T04:27:25.500Z,87.20
2022-11-05T04:30:11.913Z,87.60
2022-11-05T04:32:40.721Z,87.80
2022-11-05T04:35:09.523Z,87.20
2022-11-05T04:37:39.716Z,87.90
2022-11-05T04:40:09.701Z,88.40
2022-11-05T04:42:38.520Z,89.70
2022-11-05T04:45:07.978Z,88.60
2022-11-05T04:47:36.790Z,88.60
2022-11-05T04:50:06.013Z,88.10
2022-11-05T04:52:34.908Z,88.10
2022-11-05T04:55:05.730Z,88.50
2022-11-05T04:57:34.542Z,88.40
2022-11-05T05:00:03.655Z,88.30
2022-11-05T05:02:32.437Z,87.90
2022-11-05T05:05:01.712Z,88.00
2022-11-05T05:07:30.529Z,88.10
2022-11-05T05:09:59.370Z,87.80
2022-11-05T05:12:30.107Z,87.60
2022-11-05T05:14:58.903Z,87.20
2022-11-05T05:17:28.169Z,87.70
2022-11-05T05:20:14.530Z,87.30
2022-11-05T05:22:43.350Z,85.60
2022-11-05T05:25:12.129Z,88.80
2022-11-05T05:27:42.369Z,90.70
2022-11-05T05:30:12.508Z,91.00
2022-11-05T05:32:41.413Z,90.50
2022-11-05T05:35:11.029Z,91.10
2022-11-05T05:37:39.777Z,91.10
2022-11-05T05:40:10.170Z,90.40
2022-11-05T05:42:42.852Z,90.00
2022-11-05T05:45:14.510Z,89.40
2022-11-05T05:47:43.348Z,90.40
2022-11-05T05:50:12.111Z,90.30
2022-11-05T05:52:40.893Z,90.10
2022-11-05T05:55:12.812Z,90.70
2022-11-05T05:57:41.631Z,90.50
2022-11-05T06:00:11.871Z,91.40
2022-11-05T06:02:43.479Z,92.10
2022-11-05T06:05:12.370Z,92.00
2022-11-05T06:07:41.191Z,92.40
2022-11-05T06:10:10.730Z,92.00
2022-11-05T06:12:39.549Z,92.30
2022-11-05T06:15:09.089Z,93.30
2022-11-05T06:17:37.890Z,92.70
2022-11-05T06:20:09.885Z,93.90
2022-11-05T06:22:38.679Z,94.60
2022-11-05T06:25:08.909Z,94.10
2022-11-05T06:27:38.090Z,95.30
2022-11-05T06:30:07.898Z,94.50
2022-11-05T06:32:36.724Z,94.40
2022-11-05T06:35:05.982Z,94.20
2022-11-05T06:37:36.213Z,92.90
2022-11-05T06:40:05.519Z,93.50
2022-11-05T06:42:34.325Z,93.90
2022-11-05T06:45:03.382Z,95.50
2022-11-05T06:47:32.400Z,94.50
2022-11-05T06:50:01.375Z,95.00
2022-11-05T06:52:31.422Z,95.20
2022-11-05T06:55:01.692Z,94.90
2022-11-05T06:57:30.556Z,95.40
2022-11-05T07:00:03.287Z,96.00
2022-11-05T07:02:34.750Z,95.10
2022-11-05T07:05:03.583Z,95.10
2022-11-05T07:07:32.433Z,93.50
2022-11-05T07:10:02.590Z,93.50
2022-11-05T07:15:00.413Z,95.10
2022-11-05T07:17:29.322Z,95.00
2022-11-05T07:22:27.327Z,96.50
2022-11-05T07:24:56.077Z,95.50
2022-11-05T07:27:26.388Z,93.30
2022-11-05T07:29:55.279Z,92.00
2022-11-05T07:32:24.291Z,92.00
2022-11-05T07:34:53.207Z,94.40
2022-11-05T07:37:21.933Z,95.20
2022-11-05T07:39:50.740Z,95.60
2022-11-05T07:42:19.527Z,96.20
2022-11-05T07:44:49.748Z,96.80
2022-11-05T07:47:18.526Z,97.30
2022-11-05T07:49:47.315Z,97.00
2022-11-05T07:52:16.066Z,97.60
2022-11-05T07:54:44.887Z,97.10
2022-11-05T07:57:13.695Z,97.20
2022-11-05T07:59:42.536Z,96.60
2022-11-05T08:02:13.043Z,96.30
2022-11-05T08:04:42.685Z,96.00
2022-11-05T08:07:11.447Z,95.40
2022-11-05T08:09:40.337Z,95.10
2022-11-05T08:14:38.390Z,93.40
2022-11-05T08:17:07.132Z,93.00
2022-11-05T08:19:37.372Z,92.60
2022-11-05T08:22:06.230Z,91.40
2022-11-05T08:24:35.007Z,92.00
2022-11-05T08:27:03.739Z,92.10
2022-11-05T08:29:32.613Z,91.80
2022-11-05T08:32:01.448Z,91.90
2022-11-05T08:34:30.168Z,91.70
2022-11-05T08:37:02.070Z,91.20
2022-11-05T08:39:31.009Z,88.20
2022-11-05T08:41:59.768Z,85.80
2022-11-05T08:44:28.607Z,85.00
2022-11-05T08:46:57.448Z,83.70
2022-11-05T08:49:26.301Z,83.50
2022-11-05T08:51:55.290Z,84.60
2022-11-05T08:54:25.669Z,83.00
2022-11-05T08:56:54.489Z,83.00
2022-11-05T08:59:23.257Z,83.50
2022-11-05T09:01:52.226Z,84.00
2022-11-05T09:04:21.135Z,83.10
2022-11-05T09:06:49.928Z,80.00
2022-11-05T09:09:18.830Z,75.90
2022-11-05T09:12:10.974Z,72.90
2022-11-05T09:14:38.031Z,73.80
2022-11-05T09:17:13.588Z,73.40
2022-11-05T09:19:42.426Z,73.30
2022-11-05T09:22:13.021Z,70.00
2022-11-05T09:24:41.931Z,71.60
2022-11-05T09:27:13.471Z,70.80
2022-11-05T09:29:42.728Z,70.60
2022-11-05T09:32:12.308Z,69.90
2022-11-05T09:34:44.450Z,68.20
2022-11-05T09:37:13.732Z,68.00
2022-11-05T09:39:42.590Z,65.20
2022-11-05T09:42:17.949Z,63.40
2022-11-05T09:44:50.647Z,65.30
2022-11-05T09:47:24.890Z,66.60
2022-11-05T09:49:56.209Z,64.00
2022-11-05T09:52:27.828Z,62.50
2022-11-05T09:54:57.553Z,63.40
2022-11-05T09:57:53.697Z,43.50
2022-11-05T10:00:22.809Z,42.60
2022-11-05T10:02:55.749Z,43.90
2022-11-05T10:05:26.403Z,42.70
2022-11-05T10:07:58.069Z,41.50
2022-11-05T10:10:41.153Z,43.60
2022-11-05T10:13:23.289Z,42.00
2022-11-05T10:15:59.889Z,41.80
2022-11-05T10:18:35.411Z,41.50
2022-11-05T10:21:04.769Z,40.50
2022-11-05T10:23:34.749Z,38.80
2022-11-05T10:26:06.728Z,37.30
2022-11-05T10:28:37.441Z,36.70
2022-11-05T10:31:09.345Z,38.60
2022-11-05T10:33:43.887Z,36.30
2022-11-05T10:36:16.563Z,38.40
2022-11-05T10:38:45.740Z,35.70
2022-11-05T10:41:39.169Z,35.10
2022-11-05T10:44:22.666Z,32.80
2022-11-05T10:46:59.391Z,34.90
2022-11-05T10:49:43.427Z,36.00
2022-11-05T10:52:22.828Z,38.30
2022-11-05T10:54:54.145Z,35.10
2022-11-05T10:57:32.159Z,36.60
2022-11-05T11:00:22.087Z,35.50
2022-11-05T11:02:53.430Z,34.20
2022-11-05T11:05:25.296Z,35.60
2022-11-05T11:08:23.183Z,31.40
2022-11-05T11:10:54.298Z,35.60
2022-11-05T11:13:26.257Z,33.60
2022-11-05T11:16:06.928Z,34.00
2022-11-05T11:18:40.582Z,33.80
2022-11-05T11:21:15.440Z,34.10
2022-11-05T11:23:49.576Z,33.30
2022-11-05T11:26:18.446Z,33.50
2022-11-05T11:28:52.260Z,31.70
2022-11-05T11:31:25.362Z,31.40
2022-11-05T11:33:59.068Z,29.30
2022-11-05T11:36:33.488Z,28.80
2022-11-05T11:39:04.484Z,32.40
2022-11-05T11:41:36.411Z,29.50
2022-11-05T11:44:09.459Z,31.60
2022-11-05T11:46:40.340Z,29.30
2022-11-05T11:49:30.898Z,29.70
2022-11-05T11:52:04.772Z,31.30
2022-11-05T11:54:35.654Z,33.80
2022-11-05T11:57:05.064Z,30.90
2022-11-05T12:00:06.760Z,28.60
2022-11-05T12:03:11.870Z,29.10
2022-11-05T12:05:48.693Z,29.60
2022-11-05T12:08:49.502Z,29.30
2022-11-05T12:11:28.744Z,28.40
2022-11-05T12:14:06.867Z,29.20
2022-11-05T12:17:04.410Z,29.40
2022-11-05T12:20:02.848Z,29.10
2022-11-05T12:22:46.394Z,29.80
2022-11-05T12:25:30.410Z,29.70
2022-11-05T12:28:26.886Z,30.10
2022-11-05T12:31:04.584Z,28.50
2022-11-05T12:33:52.455Z,29.50
2022-11-05T12:36:38.724Z,29.90
2022-11-05T12:39:37.024Z,28.80
2022-11-05T12:42:16.105Z,29.70
2022-11-05T12:44:58.569Z,30.90
2022-11-05T12:47:49.725Z,30.80
2022-11-05T12:50:27.873Z,30.00
2022-11-05T12:53:27.085Z,28.60
2022-11-05T12:55:59.384Z,29.50
2022-11-05T12:58:32.714Z,30.20
2022-11-05T13:01:08.174Z,29.50
2022-11-05T13:03:43.375Z,28.50
2022-11-05T13:06:15.595Z,28.80
2022-11-05T13:08:52.495Z,28.00
2022-11-05T13:11:26.331Z,28.20
2022-11-05T13:14:05.419Z,28.50
2022-11-05T13:16:37.402Z,29.00
2022-11-05T13:19:15.078Z,28.70
2022-11-05T13:21:45.527Z,28.70
2022-11-05T13:24:22.695Z,28.90
2022-11-05T13:26:56.607Z,29.50
2022-11-05T13:29:32.834Z,30.50
2022-11-05T13:32:09.774Z,30.10
2022-11-05T13:34:38.635Z,29.10
2022-11-05T13:37:26.685Z,29.40
2022-11-05T13:39:59.943Z,29.40
2022-11-05T13:42:49.583Z,29.50
2022-11-05T13:45:40.825Z,28.10
2022-11-05T13:48:42.414Z,28.50
2022-11-05T13:51:52.496Z,28.90
2022-11-05T13:54:56.179Z,29.20
2022-11-05T13:57:57.294Z,29.00
2022-11-05T14:00:28.671Z,29.40
2022-11-05T14:03:01.315Z,29.40
2022-11-05T14:05:33.170Z,29.40
2022-11-05T14:08:09.244Z,30.30
2022-11-05T14:10:41.041Z,29.40
2022-11-05T14:13:28.072Z,28.40
2022-11-05T14:16:02.176Z,28.70
2022-11-05T14:18:40.489Z,29.50
2022-11-05T14:21:33.907Z,29.30
2022-11-05T14:24:38.947Z,29.90
2022-11-05T14:27:43.757Z,30.50
2022-11-05T14:30:55.437Z,30.30
2022-11-05T14:33:39.575Z,29.10
2022-11-05T14:36:34.759Z,29.40
2022-11-05T14:39:25.107Z,28.80
2022-11-05T14:42:00.288Z,29.30
2022-11-05T14:44:31.308Z,29.20
2022-11-05T14:47:03.548Z,28.50
2022-11-05T14:49:37.278Z,29.80
2022-11-05T14:52:10.246Z,30.40
2022-11-05T14:54:44.407Z,29.90
2022-11-05T14:57:15.858Z,29.60
2022-11-05T15:00:02.340Z,29.50
2022-11-05T15:02:38.356Z,29.30
2022-11-05T15:05:41.518Z,30.30
2022-11-05T15:08:37.947Z,30.40
2022-11-05T15:11:14.876Z,30.70
2022-11-05T15:14:07.567Z,31.10
2022-11-05T15:16:45.398Z,30.00
2022-11-05T15:19:21.789Z,30.70
2022-11-05T15:21:54.680Z,30.70
2022-11-05T15:24:23.918Z,31.60
2022-11-05T15:27:01.118Z,33.30
2022-11-05T15:29:31.348Z,35.20
2022-11-05T15:32:20.183Z,36.40
2022-11-05T15:34:53.760Z,38.40
2022-11-05T15:37:26.311Z,39.60
2022-11-05T15:39:56.572Z,39.90
2022-11-05T15:42:27.028Z,41.00
2022-11-05T15:45:20.308Z,41.60
2022-11-05T15:47:51.252Z,43.20
2022-11-05T15:50:20.301Z,43.10
2022-11-05T15:52:54.060Z,44.70
2022-11-05T15:55:25.082Z,44.70
2022-11-05T15:58:12.376Z,43.50
2022-11-05T16:00:48.905Z,41.50
2022-11-05T16:03:31.948Z,41.60
2022-11-05T16:06:02.422Z,41.90
2022-11-05T16:08:32.797Z,41.40
2022-11-05T16:11:23.788Z,42.10
2022-11-05T16:13:52.667Z,42.50
2022-11-05T16:16:39.948Z,43.20
2022-11-05T16:19:40.357Z,43.00
2022-11-05T16:22:09.967Z,43.50
2022-11-05T16:24:40.216Z,43.90
2022-11-05T16:27:19.179Z,45.90
2022-11-05T16:29:56.383Z,48.40
2022-11-05T16:32:30.978Z,49.60
2022-11-05T16:35:02.887Z,50.20
2022-11-05T16:37:37.958Z,50.90
2022-11-05T16:40:17.148Z,52.20
2022-11-05T16:42:48.687Z,52.00
2022-11-05T16:45:19.966Z,52.20
2022-11-05T16:47:49.290Z,52.10
2022-11-05T16:50:21.391Z,53.20
2022-11-05T16:52:50.517Z,54.40
2022-11-05T16:55:21.503Z,55.50
2022-11-05T16:57:53.066Z,56.60
2022-11-05T17:00:23.487Z,57.70
2022-11-05T17:02:52.811Z,59.70
2022-11-05T17:05:24.935Z,60.90
2022-11-05T17:08:13.085Z,62.60
2022-11-05T17:10:43.683Z,62.50
2022-11-05T17:13:15.853Z,61.40
2022-11-05T17:15:45.680Z,61.40
2022-11-05T17:18:18.657Z,61.50
2022-11-05T17:20:50.127Z,62.10
2022-11-05T17:23:20.151Z,63.30
2022-11-05T17:25:52.976Z,64.10
2022-11-05T17:28:22.757Z,63.70
2022-11-05T17:30:52.908Z,64.70
2022-11-05T17:33:23.021Z,65.00
2022-11-05T17:35:52.833Z,66.00
2022-11-05T17:38:22.177Z,66.70
2022-11-05T17:40:53.077Z,67.80
2022-11-05T17:43:40.317Z,68.70
2022-11-05T17:46:10.487Z,68.40
2022-11-05T17:48:40.326Z,66.80
2022-11-05T17:51:11.217Z,66.80
2022-11-05T17:53:40.010Z,67.40
2022-11-05T17:56:34.801Z,68.30
2022-11-05T17:59:24.218Z,68.50
2022-11-05T18:01:53.240Z,68.60
2022-11-05T18:04:22.120Z,70.30
2022-11-05T18:06:51.154Z,71.20
2022-11-05T18:09:20.037Z,70.60
2022-11-05T18:11:50.336Z,70.80
2022-11-05T18:14:23.916Z,71.20
2022-11-05T18:16:55.327Z,72.20
2022-11-05T18:19:24.387Z,73.40
2022-11-05T18:21:53.327Z,72.60
2022-11-05T18:24:22.427Z,73.70
2022-11-05T18:26:53.696Z,73.80
2022-11-05T18:29:22.507Z,74.40
2022-11-05T18:31:51.336Z,74.10
2022-11-05T18:34:20.246Z,73.30
2022-11-05T18:36:55.043Z,73.60
2022-11-05T18:39:25.248Z,73.30
2022-11-05T18:41:55.420Z,72.60
2022-11-05T18:44:24.950Z,71.20
2022-11-05T18:46:58.485Z,70.70
2022-11-05T18:49:46.246Z,70.50
2022-11-05T18:52:15.089Z,70.90
2022-11-05T18:54:44.308Z,70.20
2022-11-05T18:57:14.568Z,70.90
2022-11-05T18:59:46.870Z,71.90
2022-11-05T19:02:16.597Z,71.60
2022-11-05T19:05:00.709Z,71.20
2022-11-05T19:07:38.293Z,71.00
2022-11-05T19:10:08.509Z,71.80
2022-11-05T19:12:38.887Z,70.60
2022-11-05T19:15:08.906Z,70.30
2022-11-05T19:17:56.339Z,69.30
2022-11-05T19:20:25.929Z,68.70
2022-11-05T19:22:54.738Z,68.50
2022-11-05T19:25:42.070Z,68.80
2022-11-05T19:28:31.402Z,69.70
2022-11-05T19:31:00.892Z,69.00
2022-11-05T19:33:30.409Z,70.00
2022-11-05T19:35:59.829Z,69.80
2022-11-05T19:38:29.302Z,69.70
2022-11-05T19:40:58.149Z,69.70
2022-11-05T19:43:28.412Z,69.90
2022-11-05T19:45:57.240Z,70.30
2022-11-05T19:48:27.719Z,70.70
2022-11-05T19:51:15.030Z,70.30
2022-11-05T19:53:44.502Z,69.10
2022-11-05T19:56:15.594Z,69.60
2022-11-05T19:58:46.258Z,70.00
2022-11-05T20:01:16.543Z,69.80
2022-11-05T20:03:45.753Z,69.40
2022-11-05T20:06:17.073Z,69.70
2022-11-05T20:09:20.657Z,70.20
2022-11-05T20:11:37.716Z,70.10
2022-11-05T20:14:09.329Z,69.80
2022-11-05T20:16:39.349Z,69.60
2022-11-05T20:19:27.664Z,69.50
2022-11-05T20:21:56.560Z,68.40
2022-11-05T20:24:25.738Z,68.50
2022-11-05T20:26:55.789Z,71.60
2022-11-05T20:29:45.552Z,72.30
2022-11-05T20:32:14.720Z,73.30
2022-11-05T20:34:44.770Z,73.20
2022-11-05T20:37:13.667Z,73.10
2022-11-05T20:39:42.734Z,74.80
2022-11-05T20:42:12.315Z,75.60
2022-11-05T20:44:42.631Z,75.90
2022-11-05T20:47:12.080Z,76.20
2022-11-05T20:50:00.227Z,76.70
2022-11-05T20:52:30.811Z,76.50
2022-11-05T20:54:59.591Z,78.30
2022-11-05T20:57:28.411Z,79.30
2022-11-05T21:00:18.441Z,78.60
2022-11-05T21:02:47.378Z,80.40
2022-11-05T21:05:16.440Z,80.40
2022-11-05T21:07:45.311Z,81.20
2022-11-05T21:10:14.101Z,81.40
2022-11-05T21:12:43.201Z,81.50
2022-11-05T21:15:12.925Z,81.70
2022-11-05T21:17:44.233Z,82.50
2022-11-05T21:20:13.271Z,83.10
2022-11-05T21:22:43.283Z,83.30
2022-11-05T21:25:12.154Z,84.50
2022-11-05T21:27:43.520Z,83.60
2022-11-05T21:30:13.590Z,85.10
2022-11-05T21:33:02.200Z,83.50
2022-11-05T21:35:31.039Z,83.20
2022-11-05T21:38:01.657Z,83.80
2022-11-05T21:40:30.462Z,84.00
2022-11-05T21:42:59.466Z,85.00
2022-11-05T21:45:28.445Z,87.30
2022-11-05T21:47:58.957Z,88.50
2022-11-05T21:50:42.048Z,89.00
2022-11-05T21:53:31.347Z,88.80
2022-11-05T21:56:17.758Z,88.60
2022-11-05T21:59:03.929Z,89.50
2022-11-05T22:01:33.070Z,88.80
2022-11-05T22:04:21.875Z,89.30
2022-11-05T22:06:50.681Z,89.10
2022-11-05T22:09:19.686Z,90.20
2022-11-05T22:11:48.471Z,90.00
2022-11-05T22:14:36.191Z,88.60
2022-11-05T22:17:46.454Z,86.20
2022-11-05T22:20:18.098Z,85.60
2022-11-05T22:22:47.174Z,86.20
2022-11-05T22:25:16.175Z,86.60
2022-11-05T22:27:45.214Z,88.30
2022-11-05T22:30:15.492Z,88.60
2022-11-05T22:33:03.043Z,87.30
2022-11-05T22:35:33.364Z,86.30
2022-11-05T22:38:02.111Z,87.80
2022-11-05T22:40:30.984Z,87.10
2022-11-05T22:42:59.750Z,86.70
2022-11-05T22:45:28.568Z,87.50
2022-11-05T22:47:57.292Z,88.30
2022-11-05T22:50:26.062Z,88.30
2022-11-05T22:52:56.360Z,87.70
2022-11-05T22:55:25.273Z,86.80
2022-11-05T22:57:54.033Z,87.70
2022-11-05T23:00:34.009Z,86.60
2022-11-05T23:03:03.263Z,86.30
2022-11-05T23:05:32.188Z,87.00
2022-11-05T23:08:40.506Z,85.40
2022-11-05T23:11:33.174Z,85.70
2022-11-05T23:14:02.300Z,85.80
2022-11-05T23:17:07.176Z,84.20
2022-11-05T23:19:53.223Z,83.90
2022-11-05T23:22:40.692Z,81.60
2022-11-05T23:25:12.924Z,80.90
2022-11-05T23:27:42.792Z,81.10
2022-11-05T23:30:14.352Z,80.10
2022-11-05T23:32:44.510Z,79.00
2022-11-05T23:35:13.985Z,79.50
2022-11-05T23:38:00.232Z,79.10
2022-11-05T23:40:52.490Z,77.80
2022-11-05T23:43:38.902Z,77.20
2022-11-05T23:46:43.262Z,76.90
2022-11-05T23:49:12.103Z,76.40
2022-11-05T23:51:40.893Z,76.80
2022-11-05T23:54:09.791Z,77.20
2022-11-05T23:56:40.276Z,77.70
2022-11-05T23:59:09.193Z,80.00
